createdAt,value
2022-08-04T00:02:18.895Z,45.10
2022-08-04T00:04:47.208Z,45.20
2022-08-04T00:07:10.604Z,45.20
2022-08-04T00:09:22.409Z,45.10
2022-08-04T00:11:29.639Z,45.80
2022-08-04T00:13:34.324Z,45.10
2022-08-04T00:15:37.312Z,45.10
2022-08-04T00:18:00.680Z,45.10
2022-08-04T00:20:04.748Z,45.10
2022-08-04T00:22:10.247Z,45.10
2022-08-04T00:24:13.270Z,45.10
2022-08-04T00:26:17.585Z,45.10
2022-08-04T00:28:21.045Z,45.80
2022-08-04T00:30:23.100Z,45.20
2022-08-04T00:32:33.919Z,45.10
2022-08-04T00:34:37.744Z,45.10
2022-08-04T00:36:44.035Z,45.10
2022-08-04T00:38:45.692Z,45.80
2022-08-04T00:41:02.179Z,45.20
2022-08-04T00:43:21.402Z,45.30
2022-08-04T00:46:16.449Z,45.20
2022-08-04T00:48:17.297Z,45.20
2022-08-04T00:50:33.375Z,45.20
2022-08-04T00:52:46.865Z,45.20
2022-08-04T00:55:00.231Z,45.30
2022-08-04T00:57:40.042Z,45.40
2022-08-04T01:00:17.855Z,45.40
2022-08-04T01:02:34.885Z,46.00
2022-08-04T01:05:02.152Z,45.40
2022-08-04T01:07:14.111Z,45.40
2022-08-04T01:09:34.360Z,45.30
2022-08-04T01:12:00.648Z,45.40
2022-08-04T01:14:33.148Z,45.40
2022-08-04T01:16:47.271Z,45.40
2022-08-04T01:19:02.316Z,45.30
2022-08-04T01:21:21.828Z,45.40
2022-08-04T01:23:35.458Z,45.30
2022-08-04T01:26:44.184Z,45.30
2022-08-04T01:28:42.852Z,45.40
2022-08-04T01:30:49.106Z,45.20
2022-08-04T01:33:05.387Z,45.30
2022-08-04T01:35:46.920Z,45.40
2022-08-04T01:37:56.072Z,45.40
2022-08-04T01:40:05.093Z,45.30
2022-08-04T01:42:09.556Z,45.30
2022-08-04T01:44:13.520Z,45.30
2022-08-04T01:46:17.279Z,45.30
2022-08-04T01:48:25.015Z,45.30
2022-08-04T01:50:29.333Z,45.30
2022-08-04T01:52:32.216Z,45.30
2022-08-04T01:54:38.244Z,45.30
2022-08-04T01:56:42.222Z,45.30
2022-08-04T01:58:43.863Z,45.30
2022-08-04T02:01:09.947Z,45.30
2022-08-04T02:03:14.102Z,45.40
2022-08-04T02:05:18.060Z,45.30
2022-08-04T02:07:42.900Z,45.30
2022-08-04T02:10:05.735Z,45.40
2022-08-04T02:12:20.333Z,46.00
2022-08-04T02:14:44.397Z,45.40
2022-08-04T02:16:52.945Z,45.40
2022-08-04T02:19:15.614Z,45.40
2022-08-04T02:21:20.125Z,45.40
2022-08-04T02:23:31.073Z,45.40
2022-08-04T02:26:01.235Z,45.50
2022-08-04T02:28:22.584Z,45.50
2022-08-04T02:30:33.127Z,45.40
2022-08-04T02:32:40.891Z,45.50
2022-08-04T02:34:54.939Z,45.50
2022-08-04T02:36:58.987Z,45.40
2022-08-04T02:39:03.392Z,45.50
2022-08-04T02:41:07.616Z,45.50
2022-08-04T02:43:10.788Z,45.40
2022-08-04T02:45:12.998Z,45.40
2022-08-04T02:47:17.388Z,45.40
2022-08-04T02:49:21.005Z,45.40
2022-08-04T02:51:35.000Z,45.30
2022-08-04T02:53:37.711Z,45.40
2022-08-04T02:55:41.553Z,45.40
2022-08-04T02:57:54.243Z,45.40
2022-08-04T03:00:13.105Z,45.40
2022-08-04T03:02:16.994Z,45.40
2022-08-04T03:04:30.887Z,45.40
2022-08-04T03:06:38.361Z,45.30
2022-08-04T03:08:40.033Z,45.40
2022-08-04T03:11:06.414Z,45.40
2022-08-04T03:13:14.188Z,45.30
2022-08-04T03:15:34.377Z,45.40
2022-08-04T03:17:59.918Z,45.40
2022-08-04T03:20:17.176Z,45.40
2022-08-04T03:23:12.522Z,45.40
2022-08-04T03:25:30.389Z,45.40
2022-08-04T03:27:50.039Z,45.40
2022-08-04T03:30:08.071Z,45.40
2022-08-04T03:32:21.349Z,45.40
2022-08-04T03:34:41.845Z,45.40
2022-08-04T03:36:46.243Z,45.40
2022-08-04T03:39:06.545Z,45.40
2022-08-04T03:41:57.363Z,45.50
2022-08-04T03:44:31.383Z,45.40
2022-08-04T03:47:16.161Z,45.40
2022-08-04T03:49:26.721Z,45.40
2022-08-04T03:52:01.095Z,45.40
2022-08-04T03:54:08.504Z,45.40
2022-08-04T03:56:26.950Z,45.40
2022-08-04T03:58:55.431Z,45.40
2022-08-04T04:01:12.495Z,45.40
2022-08-04T04:03:43.775Z,45.40
2022-08-04T04:06:15.112Z,45.40
2022-08-04T04:08:49.557Z,45.50
2022-08-04T04:11:23.970Z,45.50
2022-08-04T04:13:25.624Z,45.40
2022-08-04T04:15:49.974Z,45.40
2022-08-04T04:18:29.192Z,46.10
2022-08-04T04:20:59.032Z,45.50
2022-08-04T04:23:19.108Z,45.40
2022-08-04T04:25:54.353Z,45.40
2022-08-04T04:28:45.971Z,45.40
2022-08-04T04:30:39.856Z,45.40
2022-08-04T04:33:12.269Z,45.40
2022-08-04T04:35:29.414Z,45.40
2022-08-04T04:37:59.702Z,45.50
2022-08-04T04:40:29.943Z,45.40
2022-08-04T04:42:34.333Z,45.40
2022-08-04T04:44:51.057Z,45.40
2022-08-04T04:47:07.486Z,45.50
2022-08-04T04:49:20.969Z,45.50
2022-08-04T04:51:53.757Z,45.40
2022-08-04T04:54:29.832Z,45.40
2022-08-04T04:57:08.914Z,45.40
2022-08-04T04:59:15.442Z,45.40
2022-08-04T05:01:46.107Z,45.40
2022-08-04T05:04:02.144Z,45.40
2022-08-04T05:06:35.993Z,45.40
2022-08-04T05:09:12.408Z,45.40
2022-08-04T05:11:51.485Z,45.30
2022-08-04T05:14:38.146Z,45.40
2022-08-04T05:16:30.804Z,45.20
2022-08-04T05:18:37.115Z,45.30
2022-08-04T05:20:51.164Z,45.20
2022-08-04T05:23:00.995Z,45.20
2022-08-04T05:25:26.688Z,45.30
2022-08-04T05:27:40.159Z,45.20
2022-08-04T05:29:59.192Z,45.20
2022-08-04T05:32:05.455Z,45.10
2022-08-04T05:34:24.310Z,45.20
2022-08-04T05:36:41.321Z,45.20
2022-08-04T05:38:45.859Z,45.10
2022-08-04T05:40:49.456Z,45.00
2022-08-04T05:42:53.883Z,45.00
2022-08-04T05:44:57.116Z,45.00
2022-08-04T05:46:59.873Z,45.00
2022-08-04T05:49:02.820Z,45.10
2022-08-04T05:51:05.504Z,45.00
2022-08-04T05:53:10.337Z,44.90
2022-08-04T05:55:12.776Z,45.00
2022-08-04T05:57:35.245Z,45.00
2022-08-04T05:59:39.411Z,44.90
2022-08-04T06:01:55.369Z,44.80
2022-08-04T06:04:01.415Z,44.80
2022-08-04T06:06:04.181Z,44.80
2022-08-04T06:08:12.061Z,44.80
2022-08-04T06:10:16.873Z,44.80
2022-08-04T06:12:22.754Z,44.80
2022-08-04T06:14:24.903Z,44.70
2022-08-04T06:16:30.965Z,44.80
2022-08-04T06:20:04.056Z,44.80
2022-08-04T06:21:00.091Z,44.80
2022-08-04T06:23:07.226Z,44.70
2022-08-04T06:25:12.609Z,44.70
2022-08-04T06:27:15.584Z,44.70
2022-08-04T06:29:40.292Z,44.80
2022-08-04T06:32:27.885Z,44.80
2022-08-04T06:34:10.114Z,44.80
2022-08-04T06:36:12.612Z,44.80
2022-08-04T06:38:15.103Z,44.70
2022-08-04T06:40:30.961Z,44.60
2022-08-04T06:42:34.772Z,44.60
2022-08-04T06:44:37.088Z,44.60
2022-08-04T06:46:41.504Z,44.60
2022-08-04T06:48:44.233Z,45.30
2022-08-04T06:51:30.690Z,45.30
2022-08-04T06:53:13.036Z,44.60
2022-08-04T06:55:14.781Z,44.60
2022-08-04T06:57:28.879Z,44.60
2022-08-04T06:59:30.952Z,44.70
2022-08-04T07:01:35.674Z,44.60
2022-08-04T07:03:37.885Z,44.60
2022-08-04T07:05:40.968Z,44.60
2022-08-04T07:07:57.319Z,44.60
2022-08-04T07:10:01.757Z,44.70
2022-08-04T07:12:03.870Z,44.60
2022-08-04T07:14:06.505Z,44.70
2022-08-04T07:16:09.961Z,44.70
2022-08-04T07:18:11.835Z,44.60
2022-08-04T07:20:13.491Z,45.40
2022-08-04T07:22:25.589Z,44.70
2022-08-04T07:24:35.648Z,44.70
2022-08-04T07:26:37.436Z,44.70
2022-08-04T07:28:39.824Z,44.70
2022-08-04T07:30:44.860Z,44.70
2022-08-04T07:32:47.005Z,44.70
2022-08-04T07:34:52.529Z,44.70
2022-08-04T07:36:56.106Z,44.70
2022-08-04T07:38:58.193Z,44.70
2022-08-04T07:41:01.402Z,44.60
2022-08-04T07:43:03.883Z,44.70
2022-08-04T07:45:06.532Z,44.60
2022-08-04T07:47:12.684Z,44.70
2022-08-04T07:49:56.660Z,44.60
2022-08-04T07:51:38.015Z,44.70
2022-08-04T07:53:54.544Z,44.60
2022-08-04T07:55:58.392Z,44.80
2022-08-04T07:58:00.736Z,44.60
2022-08-04T08:00:04.602Z,44.70
2022-08-04T08:02:06.312Z,44.60
2022-08-04T08:04:10.223Z,44.60
2022-08-04T08:06:17.200Z,44.60
2022-08-04T08:08:37.389Z,44.60
2022-08-04T08:10:39.750Z,44.70
2022-08-04T08:12:51.242Z,44.70
2022-08-04T08:14:54.310Z,44.70
2022-08-04T08:16:56.174Z,44.60
2022-08-04T08:18:57.855Z,44.70
2022-08-04T08:20:59.728Z,44.70
2022-08-04T08:23:02.391Z,44.60
2022-08-04T08:25:06.817Z,44.60
2022-08-04T08:27:08.572Z,44.60
2022-08-04T08:29:10.784Z,44.50
2022-08-04T08:31:12.510Z,44.60
2022-08-04T08:33:16.327Z,44.50
2022-08-04T08:35:19.249Z,44.60
2022-08-04T08:37:50.570Z,44.60
2022-08-04T08:40:40.196Z,44.60
2022-08-04T08:44:06.523Z,44.50
2022-08-04T08:46:04.915Z,44.60
2022-08-04T08:48:39.984Z,44.60
2022-08-04T08:50:59.752Z,44.60
2022-08-04T08:53:07.020Z,44.60
2022-08-04T08:55:12.420Z,44.60
2022-08-04T08:57:22.256Z,44.60
2022-08-04T08:59:42.697Z,44.60
2022-08-04T09:02:07.343Z,44.50
2022-08-04T09:04:46.681Z,44.50
2022-08-04T09:07:32.451Z,44.50
2022-08-04T09:09:43.475Z,44.40
2022-08-04T09:11:50.870Z,44.50
2022-08-04T09:14:08.791Z,44.50
2022-08-04T09:16:27.279Z,44.50
2022-08-04T09:18:43.145Z,44.50
2022-08-04T09:20:49.452Z,44.50
2022-08-04T09:23:04.245Z,44.50
2022-08-04T09:25:20.175Z,44.50
2022-08-04T09:27:40.469Z,44.50
2022-08-04T09:29:53.534Z,44.50
2022-08-04T09:32:19.952Z,44.50
2022-08-04T09:34:34.617Z,44.50
2022-08-04T09:36:46.377Z,44.40
2022-08-04T09:39:17.426Z,44.40
2022-08-04T09:41:49.706Z,44.50
2022-08-04T09:44:50.826Z,44.40
2022-08-04T09:46:45.906Z,44.40
2022-08-04T09:48:50.542Z,44.40
2022-08-04T09:50:58.999Z,44.40
2022-08-04T09:53:35.585Z,44.40
2022-08-04T09:56:09.775Z,44.40
2022-08-04T09:58:23.541Z,44.30
2022-08-04T10:00:40.552Z,44.30
2022-08-04T10:02:53.584Z,44.30
2022-08-04T10:04:57.890Z,44.40
2022-08-04T10:07:27.342Z,44.30
2022-08-04T10:09:49.590Z,44.20
2022-08-04T10:11:57.324Z,44.30
2022-08-04T10:14:31.288Z,44.20
2022-08-04T10:16:58.637Z,44.30
2022-08-04T10:19:09.114Z,44.20
2022-08-04T10:21:27.946Z,44.20
2022-08-04T10:23:55.710Z,44.10
2022-08-04T10:26:41.704Z,44.20
2022-08-04T10:29:05.772Z,44.20
2022-08-04T10:31:10.130Z,44.10
2022-08-04T10:33:30.671Z,44.20
2022-08-04T10:35:46.427Z,44.20
2022-08-04T10:38:15.708Z,44.20
2022-08-04T10:40:40.756Z,44.20
2022-08-04T10:43:07.212Z,44.10
2022-08-04T10:45:28.586Z,44.20
2022-08-04T10:47:37.133Z,44.20
2022-08-04T10:49:47.013Z,44.80
2022-08-04T10:51:58.642Z,44.20
2022-08-04T10:54:05.927Z,44.20
2022-08-04T10:56:23.631Z,44.20
2022-08-04T10:58:46.982Z,44.00
2022-08-04T11:00:56.875Z,44.10
2022-08-04T11:03:08.869Z,44.10
2022-08-04T11:05:43.858Z,44.00
2022-08-04T11:07:51.349Z,44.10
2022-08-04T11:09:53.264Z,44.10
2022-08-04T11:12:02.374Z,44.00
2022-08-04T11:14:06.825Z,44.00
2022-08-04T11:16:32.984Z,44.00
2022-08-04T11:18:47.437Z,44.00
2022-08-04T11:20:59.152Z,44.00
2022-08-04T11:23:24.243Z,43.90
2022-08-04T11:25:30.041Z,43.90
2022-08-04T11:27:50.754Z,43.90
2022-08-04T11:30:04.711Z,44.10
2022-08-04T11:32:13.273Z,43.90
2022-08-04T11:34:22.133Z,43.90
2022-08-04T11:36:46.514Z,43.90
2022-08-04T11:39:25.552Z,44.00
2022-08-04T11:41:40.895Z,43.90
2022-08-04T11:44:08.011Z,43.90
2022-08-04T11:46:29.877Z,43.80
2022-08-04T11:48:36.953Z,43.90
2022-08-04T11:50:53.993Z,44.50
2022-08-04T11:52:58.175Z,43.90
2022-08-04T11:55:05.539Z,43.80
2022-08-04T11:57:07.553Z,43.90
2022-08-04T11:59:09.381Z,43.90
2022-08-04T12:01:44.665Z,43.90
2022-08-04T12:04:07.644Z,43.90
2022-08-04T12:06:14.132Z,43.90
2022-08-04T12:08:54.176Z,43.90
2022-08-04T12:11:33.558Z,43.90
2022-08-04T12:13:40.591Z,43.80
2022-08-04T12:16:05.013Z,43.90
2022-08-04T12:18:21.011Z,43.80
2022-08-04T12:20:29.983Z,43.80
2022-08-04T12:22:45.801Z,43.80
2022-08-04T12:25:05.678Z,44.40
2022-08-04T12:27:23.946Z,43.80
2022-08-04T12:29:36.047Z,43.80
2022-08-04T12:32:10.586Z,43.70
2022-08-04T12:34:29.733Z,43.80
2022-08-04T12:36:45.079Z,43.80
2022-08-04T12:38:58.945Z,43.80
2022-08-04T12:41:04.831Z,43.70
2022-08-04T12:43:13.455Z,43.80
2022-08-04T12:45:17.022Z,43.80
2022-08-04T12:47:27.040Z,43.70
2022-08-04T12:49:34.642Z,43.70
2022-08-04T12:52:08.087Z,43.70
2022-08-04T12:54:12.439Z,43.80
2022-08-04T12:56:15.919Z,43.70
2022-08-04T12:58:42.600Z,43.80
2022-08-04T13:01:00.504Z,43.70
2022-08-04T13:03:10.255Z,43.80
2022-08-04T13:05:16.985Z,43.80
2022-08-04T13:07:22.332Z,43.70
2022-08-04T13:09:28.992Z,43.60
2022-08-04T13:11:37.088Z,43.60
2022-08-04T13:13:39.823Z,43.70
2022-08-04T13:15:47.033Z,44.30
2022-08-04T13:17:59.793Z,43.60
2022-08-04T13:20:02.241Z,43.60
2022-08-04T13:22:05.548Z,43.70
2022-08-04T13:24:21.199Z,43.70
2022-08-04T13:26:42.821Z,43.70
2022-08-04T13:29:00.881Z,43.80
2022-08-04T13:31:22.833Z,43.70
2022-08-04T13:33:36.670Z,43.70
2022-08-04T13:35:55.546Z,43.70
2022-08-04T13:37:59.429Z,44.40
2022-08-04T13:40:07.061Z,43.70
2022-08-04T13:42:13.334Z,43.80
2022-08-04T13:44:21.195Z,43.80
2022-08-04T13:46:28.765Z,43.80
2022-08-04T13:48:37.576Z,43.80
2022-08-04T13:50:45.248Z,43.70
2022-08-04T13:52:47.374Z,43.70
2022-08-04T13:54:49.111Z,43.70
2022-08-04T13:56:59.819Z,44.30
2022-08-04T13:59:05.849Z,43.70
2022-08-04T14:01:26.617Z,43.70
2022-08-04T14:04:09.654Z,43.70
2022-08-04T14:06:25.133Z,43.60
2022-08-04T14:08:31.336Z,43.70
2022-08-04T14:10:34.649Z,43.70
2022-08-04T14:12:46.122Z,43.70
2022-08-04T14:14:53.351Z,43.60
2022-08-04T14:17:01.388Z,43.70
2022-08-04T14:19:03.161Z,43.80
2022-08-04T14:21:16.285Z,43.80
2022-08-04T14:23:17.981Z,43.70
2022-08-04T14:25:19.622Z,43.70
2022-08-04T14:27:21.563Z,43.60
2022-08-04T14:29:27.845Z,43.60
2022-08-04T14:31:31.257Z,43.60
2022-08-04T14:34:01.208Z,43.70
2022-08-04T14:36:01.562Z,43.70
2022-08-04T14:38:11.411Z,43.70
2022-08-04T14:40:30.521Z,43.70
2022-08-04T14:42:53.890Z,43.70
2022-08-04T14:44:58.859Z,43.70
2022-08-04T14:47:01.852Z,43.80
2022-08-04T14:49:12.535Z,43.80
2022-08-04T14:51:15.097Z,43.70
2022-08-04T14:53:19.799Z,43.60
2022-08-04T14:55:24.724Z,43.70
2022-08-04T14:57:27.304Z,43.70
2022-08-04T14:59:41.577Z,43.70
2022-08-04T15:02:01.604Z,43.80
2022-08-04T15:04:05.415Z,43.70
2022-08-04T15:06:13.517Z,43.80
2022-08-04T15:08:17.112Z,43.80
2022-08-04T15:10:20.428Z,43.80
2022-08-04T15:12:22.570Z,43.70
2022-08-04T15:14:37.047Z,43.70
2022-08-04T15:16:39.756Z,43.70
2022-08-04T15:18:57.675Z,43.70
2022-08-04T15:21:03.118Z,43.70
2022-08-04T15:23:10.421Z,43.80
2022-08-04T15:25:15.645Z,43.80
2022-08-04T15:27:19.469Z,43.70
2022-08-04T15:29:28.811Z,43.70
2022-08-04T15:32:06.458Z,43.80
2022-08-04T15:33:59.641Z,43.80
2022-08-04T15:36:19.217Z,43.80
2022-08-04T15:38:39.039Z,43.80
2022-08-04T15:40:48.619Z,43.90
2022-08-04T15:43:09.138Z,44.10
2022-08-04T15:45:20.578Z,43.90
2022-08-04T15:47:22.308Z,43.80
2022-08-04T15:49:25.544Z,43.80
2022-08-04T15:51:32.021Z,43.80
2022-08-04T15:54:03.161Z,43.90
2022-08-04T15:56:02.088Z,43.90
2022-08-04T15:58:06.742Z,43.90
2022-08-04T16:00:14.695Z,43.90
2022-08-04T16:02:29.495Z,43.90
2022-08-04T16:04:31.256Z,43.80
2022-08-04T16:06:42.091Z,43.80
2022-08-04T16:08:46.501Z,43.90
2022-08-04T16:10:59.584Z,44.60
2022-08-04T16:13:15.290Z,43.80
2022-08-04T16:15:39.356Z,43.80
2022-08-04T16:17:41.146Z,43.90
2022-08-04T16:19:53.262Z,43.90
2022-08-04T16:21:58.323Z,43.90
2022-08-04T16:24:18.622Z,43.90
2022-08-04T16:26:35.632Z,43.90
2022-08-04T16:28:42.411Z,43.90
2022-08-04T16:30:44.092Z,43.90
2022-08-04T16:32:48.525Z,43.90
2022-08-04T16:34:55.513Z,43.90
2022-08-04T16:37:03.490Z,44.60
2022-08-04T16:39:06.714Z,44.00
2022-08-04T16:41:08.584Z,44.00
2022-08-04T16:43:16.128Z,44.00
2022-08-04T16:45:17.793Z,44.00
2022-08-04T16:47:48.503Z,44.00
2022-08-04T16:50:01.992Z,44.00
2022-08-04T16:52:08.443Z,44.00
2022-08-04T16:54:12.486Z,44.00
2022-08-04T16:56:18.677Z,44.00
2022-08-04T16:58:36.853Z,43.90
2022-08-04T17:00:39.048Z,44.00
2022-08-04T17:02:41.095Z,43.90
2022-08-04T17:04:42.826Z,43.90
2022-08-04T17:06:48.472Z,43.90
2022-08-04T17:08:50.310Z,43.90
2022-08-04T17:10:52.044Z,43.90
2022-08-04T17:13:14.070Z,44.00
2022-08-04T17:15:22.753Z,43.90
2022-08-04T17:17:24.408Z,44.00
2022-08-04T17:19:52.735Z,43.90
2022-08-04T17:22:05.763Z,43.90
2022-08-04T17:24:15.062Z,43.90
2022-08-04T17:26:22.499Z,43.80
2022-08-04T17:28:47.665Z,43.90
2022-08-04T17:30:51.504Z,44.00
2022-08-04T17:32:53.425Z,44.00
2022-08-04T17:35:02.239Z,44.00
2022-08-04T17:37:36.695Z,44.60
2022-08-04T17:39:30.934Z,44.00
2022-08-04T17:41:40.018Z,43.90
2022-08-04T17:44:03.014Z,44.00
2022-08-04T17:46:45.579Z,44.00
2022-08-04T17:48:59.269Z,44.00
2022-08-04T17:51:17.142Z,43.90
2022-08-04T17:54:01.328Z,43.80
2022-08-04T17:55:54.752Z,43.90
2022-08-04T17:58:20.854Z,43.80
2022-08-04T18:00:23.549Z,43.90
2022-08-04T18:02:35.302Z,44.00
2022-08-04T18:05:06.738Z,43.90
2022-08-04T18:08:38.682Z,44.00
2022-08-04T18:10:01.785Z,43.90
2022-08-04T18:12:29.133Z,43.90
2022-08-04T18:14:39.605Z,43.80
2022-08-04T18:16:45.275Z,43.90
2022-08-04T18:19:07.646Z,43.90
2022-08-04T18:21:09.306Z,44.00
2022-08-04T18:23:12.640Z,43.90
2022-08-04T18:25:23.065Z,43.90
2022-08-04T18:27:53.794Z,43.80
2022-08-04T18:30:33.987Z,43.90
2022-08-04T18:32:17.623Z,43.90
2022-08-04T18:34:22.267Z,43.80
2022-08-04T18:38:55.373Z,43.80
2022-08-04T18:40:57.810Z,43.90
2022-08-04T18:43:00.516Z,43.90
2022-08-04T18:45:05.568Z,43.90
2022-08-04T18:47:19.298Z,43.90
2022-08-04T18:50:58.918Z,43.90
2022-08-04T18:51:55.928Z,43.90
2022-08-04T18:53:58.637Z,43.90
2022-08-04T18:56:00.998Z,44.00
2022-08-04T18:58:07.033Z,43.90
2022-08-04T19:00:10.424Z,43.90
2022-08-04T19:02:16.423Z,43.90
2022-08-04T19:04:33.864Z,43.90
2022-08-04T19:06:41.197Z,43.90
2022-08-04T19:08:43.176Z,43.90
2022-08-04T19:10:47.100Z,43.90
2022-08-04T19:12:55.978Z,43.90
2022-08-04T19:17:52.790Z,43.90
2022-08-04T19:19:47.610Z,43.90
2022-08-04T19:22:00.801Z,43.80
2022-08-04T19:24:27.024Z,43.90
2022-08-04T19:26:28.178Z,43.90
2022-08-04T19:28:34.250Z,43.90
2022-08-04T19:30:36.747Z,43.90
2022-08-04T19:32:38.543Z,43.90
2022-08-04T19:34:42.467Z,43.90
2022-08-04T19:36:48.340Z,43.90
2022-08-04T19:38:51.124Z,43.90
2022-08-04T19:40:53.331Z,43.90
2022-08-04T19:45:16.983Z,43.90
2022-08-04T19:48:16.760Z,43.90
2022-08-04T19:50:04.644Z,44.00
2022-08-04T19:52:03.110Z,44.00
2022-08-04T19:54:16.749Z,43.90
2022-08-04T19:56:25.665Z,43.90
2022-08-04T19:58:27.760Z,43.90
2022-08-04T20:00:33.692Z,44.00
2022-08-04T20:02:36.152Z,43.90
2022-08-04T20:04:37.820Z,43.80
2022-08-04T20:06:39.947Z,43.80
2022-08-04T20:08:48.481Z,43.90
2022-08-04T20:10:51.970Z,43.90
2022-08-04T20:12:55.728Z,43.90
2022-08-04T20:14:57.761Z,43.90
2022-08-04T20:17:03.089Z,43.90
2022-08-04T20:19:14.210Z,43.90
2022-08-04T20:21:22.657Z,43.80
2022-08-04T20:23:47.768Z,43.80
2022-08-04T20:25:47.964Z,43.90
2022-08-04T20:27:59.647Z,43.80
2022-08-04T20:30:04.280Z,43.80
2022-08-04T20:34:40.144Z,43.70
2022-08-04T20:36:49.689Z,43.90
2022-08-04T20:38:54.372Z,43.80
2022-08-04T20:40:56.139Z,43.90
2022-08-04T20:42:59.551Z,43.80
2022-08-04T20:45:01.936Z,43.80
2022-08-04T20:47:03.905Z,43.70
2022-08-04T20:49:09.306Z,43.90
2022-08-04T20:51:10.975Z,43.80
2022-08-04T20:53:17.621Z,43.80
2022-08-04T20:55:19.318Z,43.80
2022-08-04T20:57:49.341Z,43.70
2022-08-04T20:59:44.127Z,43.80
2022-08-04T21:02:03.253Z,43.70
2022-08-04T21:04:27.789Z,43.70
2022-08-04T21:06:30.425Z,43.80
2022-08-04T21:08:32.076Z,43.80
2022-08-04T21:10:35.279Z,43.80
2022-08-04T21:12:36.921Z,43.70
2022-08-04T21:14:38.600Z,43.80
2022-08-04T21:16:55.422Z,43.80
2022-08-04T21:18:58.064Z,43.80
2022-08-04T21:20:59.836Z,43.80
2022-08-04T21:23:03.732Z,43.80
2022-08-04T21:25:07.438Z,43.90
2022-08-04T21:27:17.414Z,43.80
2022-08-04T21:29:19.440Z,43.80
2022-08-04T21:31:24.392Z,43.80
2022-08-04T21:33:50.840Z,43.80
2022-08-04T21:35:54.742Z,43.90
2022-08-04T21:37:58.049Z,43.80
2022-08-04T21:40:14.800Z,43.90
2022-08-04T21:42:29.539Z,43.90
2022-08-04T21:44:32.114Z,43.90
2022-08-04T21:46:34.757Z,43.90
2022-08-04T21:48:44.190Z,44.60
2022-08-04T21:50:50.770Z,43.90
2022-08-04T21:52:52.495Z,43.90
2022-08-04T21:54:54.995Z,43.90
2022-08-04T21:56:56.901Z,44.00
2022-08-04T21:58:58.876Z,44.00
2022-08-04T22:01:00.589Z,44.00
2022-08-04T22:03:21.226Z,44.00
2022-08-04T22:05:32.815Z,44.00
2022-08-04T22:07:50.714Z,44.70
2022-08-04T22:10:00.597Z,44.00
2022-08-04T22:12:05.842Z,44.10
2022-08-04T22:14:11.225Z,44.10
2022-08-04T22:16:13.543Z,44.20
2022-08-04T22:18:15.689Z,44.20
2022-08-04T22:20:27.467Z,44.20
2022-08-04T22:22:33.858Z,44.20
2022-08-04T22:24:35.660Z,44.10
2022-08-04T22:26:37.814Z,44.20
2022-08-04T22:28:40.803Z,44.20
2022-08-04T22:30:48.426Z,44.20
2022-08-04T22:32:54.432Z,44.20
2022-08-04T22:34:56.487Z,44.20
2022-08-04T22:36:59.236Z,44.20
2022-08-04T22:39:07.361Z,44.10
2022-08-04T22:41:14.272Z,44.20
2022-08-04T22:43:31.220Z,44.20
2022-08-04T22:45:44.626Z,44.30
2022-08-04T22:47:52.645Z,44.30
2022-08-04T22:50:13.501Z,44.20
2022-08-04T22:52:27.802Z,44.50
2022-08-04T22:54:33.417Z,44.20
2022-08-04T22:56:38.282Z,44.30
2022-08-04T22:58:45.654Z,44.30
2022-08-04T23:00:53.163Z,44.30
2022-08-04T23:02:59.792Z,44.40
2022-08-04T23:05:01.488Z,44.40
2022-08-04T23:07:09.134Z,44.40
2022-08-04T23:09:15.900Z,44.40
2022-08-04T23:11:18.104Z,44.30
2022-08-04T23:13:19.999Z,44.40
2022-08-04T23:15:22.002Z,44.50
2022-08-04T23:17:25.118Z,44.40
2022-08-04T23:19:30.127Z,44.40
2022-08-04T23:21:41.053Z,44.50
2022-08-04T23:24:00.913Z,44.40
2022-08-04T23:26:14.285Z,44.30
2022-08-04T23:28:16.204Z,44.40
2022-08-04T23:30:19.515Z,44.40
2022-08-04T23:32:21.263Z,44.40
2022-08-04T23:34:24.360Z,44.50
2022-08-04T23:36:30.942Z,44.40
2022-08-04T23:38:33.117Z,44.50
2022-08-04T23:40:50.133Z,44.50
2022-08-04T23:42:52.512Z,44.50
2022-08-04T23:44:54.751Z,44.50
2022-08-04T23:47:04.635Z,44.50
2022-08-04T23:49:08.807Z,44.60
2022-08-04T23:51:14.452Z,44.50
2022-08-04T23:53:18.473Z,44.40
2022-08-04T23:55:24.512Z,44.50
2022-08-04T23:58:06.360Z,44.50
2022-08-04T23:59:55.411Z,44.60
